TOM1AD LEMG-EGNX
Flight info
| Callsign | TOM1AD |
|---|---|
| Flight time | N/A |
| Altitude | 38000 |
| Route | BLN4L BLN DCT MORAL DCT BEXID DCT VTB DCT RBO DCT OSTIX DCT GASMO DCT DGO DCT BLV DCT BISKA P87 BELEN DCT DIDIG DCT MOKOR UN873 OLEBA DCT ROGPU DCT DIKRO UM184 KOTEM/N0379F240 M184 HEMEL HEME1E |
| Aircraft | B738/M-SDE2E3FGHIRWXY/LB1 |
Departure
| Time | N/A |
|---|---|
| Airport | Málaga-Costa del Sol Airport (LEMG) |
Arrival
| Time | 2026-05-04 13:22 |
|---|---|
| Airport | East Midlands Airport (EGNX) |
| Time | Latitude | Longitude | Altitude | Speed | Heading |
|---|---|---|---|---|---|
| 2026-05-04 13:13 | 52.65361 | -1.24024 | 8583 ft | 251 kts | 275° |
| 2026-05-04 13:13 | 52.65563 | -1.26881 | 8325 ft | 250 kts | 275° |
| 2026-05-04 13:13 | 52.65761 | -1.29714 | 8098 ft | 247 kts | 275° |
| 2026-05-04 13:14 | 52.65953 | -1.32478 | 8031 ft | 240 kts | 275° |
| 2026-05-04 13:14 | 52.66141 | -1.35202 | 8021 ft | 238 kts | 275° |
| 2026-05-04 13:14 | 52.66328 | -1.37936 | 8034 ft | 244 kts | 275° |
| 2026-05-04 13:14 | 52.66521 | -1.40769 | 8045 ft | 253 kts | 275° |
| 2026-05-04 13:15 | 52.66719 | -1.43674 | 8027 ft | 255 kts | 275° |
| 2026-05-04 13:15 | 52.66916 | -1.46552 | 7892 ft | 252 kts | 275° |
| 2026-05-04 13:15 | 52.67109 | -1.49412 | 7605 ft | 249 kts | 275° |
| 2026-05-04 13:15 | 52.67299 | -1.52223 | 7267 ft | 245 kts | 275° |
| 2026-05-04 13:16 | 52.67487 | -1.54984 | 6952 ft | 240 kts | 275° |
| 2026-05-04 13:16 | 52.67671 | -1.57700 | 6629 ft | 237 kts | 276° |
| 2026-05-04 13:16 | 52.68181 | -1.60253 | 6227 ft | 237 kts | 304° |
| 2026-05-04 13:16 | 52.69424 | -1.61991 | 5844 ft | 238 kts | 335° |
| 2026-05-04 13:17 | 52.71043 | -1.62476 | 5486 ft | 238 kts | 358° |
| 2026-05-04 13:17 | 52.72696 | -1.62457 | 5072 ft | 239 kts | 0° |
| 2026-05-04 13:17 | 52.74342 | -1.62405 | 4664 ft | 241 kts | 0° |
| 2026-05-04 13:17 | 52.76020 | -1.62355 | 4205 ft | 242 kts | 0° |
| 2026-05-04 13:18 | 52.77690 | -1.62039 | 3722 ft | 244 kts | 19° |
| 2026-05-04 13:18 | 52.79220 | -1.60887 | 3384 ft | 239 kts | 25° |
| 2026-05-04 13:18 | 52.80700 | -1.59718 | 3120 ft | 232 kts | 25° |
| 2026-05-04 13:18 | 52.82051 | -1.58366 | 2868 ft | 224 kts | 47° |
| 2026-05-04 13:19 | 52.82673 | -1.56111 | 2677 ft | 215 kts | 83° |
| 2026-05-04 13:19 | 52.82721 | -1.54498 | 2546 ft | 209 kts | 89° |
| 2026-05-04 13:19 | 52.82776 | -1.51410 | 2223 ft | 194 kts | 87° |
| 2026-05-04 13:19 | 52.82815 | -1.49239 | 2064 ft | 183 kts | 88° |
| 2026-05-04 13:20 | 52.82849 | -1.47200 | 1868 ft | 173 kts | 87° |
| 2026-05-04 13:20 | 52.82881 | -1.45257 | 1638 ft | 165 kts | 87° |
| 2026-05-04 13:20 | 52.82913 | -1.43411 | 1419 ft | 156 kts | 86° |
| 2026-05-04 13:20 | 52.82942 | -1.41691 | 1244 ft | 140 kts | 86° |
| 2026-05-04 13:21 | 52.82953 | -1.40158 | 1017 ft | 128 kts | 89° |
| 2026-05-04 13:21 | 52.82970 | -1.38699 | 815 ft | 126 kts | 86° |
| 2026-05-04 13:21 | 52.83014 | -1.37266 | 631 ft | 125 kts | 88° |
| 2026-05-04 13:21 | 52.83041 | -1.35829 | 473 ft | 125 kts | 87° |
| 2026-05-04 13:22 | 52.83072 | -1.34387 | 316 ft | 126 kts | 86° |
| 2026-05-04 13:22 | 52.83094 | -1.33165 | 308 ft | 79 kts | 88° |
| 2026-05-04 13:22 | 52.83106 | -1.32540 | 303 ft | 46 kts | 88° |
| 2026-05-04 13:22 | 52.83114 | -1.32034 | 305 ft | 41 kts | 89° |